createdAt,value
2023-06-06T00:00:59.288Z,101127.64
2023-06-06T00:03:43.585Z,101122.34
2023-06-06T00:06:17.230Z,101116.81
2023-06-06T00:08:51.585Z,101125.49
2023-06-06T00:11:25.351Z,101118.55
2023-06-06T00:13:59.982Z,101116.50
2023-06-06T00:16:34.450Z,101124.61
2023-06-06T00:19:07.987Z,101122.36
2023-06-06T00:21:42.540Z,101117.86
2023-06-06T00:24:17.251Z,101116.05
2023-06-06T00:26:50.575Z,101115.64
2023-06-06T00:29:24.364Z,101104.13
2023-06-06T00:31:57.946Z,101115.48
2023-06-06T00:34:31.907Z,101109.30
2023-06-06T00:37:05.996Z,101112.03
2023-06-06T00:39:39.460Z,101106.50
2023-06-06T00:42:13.594Z,101110.83
2023-06-06T00:44:47.009Z,101106.12
2023-06-06T00:47:20.955Z,101108.63
2023-06-06T00:49:56.558Z,101116.67
2023-06-06T00:52:32.386Z,101111.13
2023-06-06T00:55:10.511Z,101111.78
2023-06-06T00:57:46.622Z,101111.78
2023-06-06T01:00:21.276Z,101115.11
2023-06-06T01:02:55.039Z,101115.72
2023-06-06T01:05:31.131Z,101118.82
2023-06-06T01:08:06.257Z,101121.30
2023-06-06T01:10:40.882Z,101119.05
2023-06-06T01:13:23.910Z,101115.98
2023-06-06T01:16:01.617Z,101120.91
2023-06-06T01:18:36.391Z,101117.62
2023-06-06T01:21:11.506Z,101119.29
2023-06-06T01:23:47.056Z,101117.03
2023-06-06T01:26:20.547Z,101116.61
2023-06-06T01:28:54.110Z,101118.05
2023-06-06T01:31:35.141Z,101110.66
2023-06-06T01:34:17.890Z,101112.92
2023-06-06T01:36:59.470Z,101110.88
2023-06-06T01:39:36.272Z,101115.77
2023-06-06T01:42:15.236Z,101103.03
2023-06-06T01:44:53.325Z,101100.95
2023-06-06T01:47:29.034Z,101087.38
2023-06-06T01:50:04.848Z,101089.84
2023-06-06T01:52:42.421Z,101090.48
2023-06-06T01:55:18.163Z,101089.02
2023-06-06T01:57:52.198Z,101093.13
2023-06-06T02:00:27.961Z,101096.44
2023-06-06T02:03:03.037Z,101089.85
2023-06-06T02:05:37.195Z,101093.12
2023-06-06T02:08:10.528Z,101098.08
2023-06-06T02:10:44.791Z,101099.50
2023-06-06T02:13:18.752Z,101107.09
2023-06-06T02:15:53.110Z,101107.50
2023-06-06T02:18:27.210Z,101104.61
2023-06-06T02:21:00.788Z,101105.85
2023-06-06T02:23:34.128Z,101100.29
2023-06-06T02:26:07.978Z,101099.86
2023-06-06T02:28:41.892Z,101110.14
2023-06-06T02:31:18.348Z,101110.73
2023-06-06T02:33:53.093Z,101119.14
2023-06-06T02:36:26.922Z,101120.38
2023-06-06T02:39:00.277Z,101116.47
2023-06-06T02:41:35.061Z,101117.89
2023-06-06T02:44:10.652Z,101116.02
2023-06-06T02:46:44.737Z,101127.91
2023-06-06T02:49:19.595Z,101123.98
2023-06-06T02:51:53.698Z,101125.22
2023-06-06T02:54:27.817Z,101128.47
2023-06-06T02:57:02.277Z,101135.86
2023-06-06T02:59:36.489Z,101135.23
2023-06-06T03:02:12.119Z,101136.25
2023-06-06T03:04:46.309Z,101138.11
2023-06-06T03:07:19.696Z,101135.81
2023-06-06T03:09:53.515Z,101137.02
2023-06-06T03:12:31.549Z,101136.38
2023-06-06T03:15:08.802Z,101139.89
2023-06-06T03:17:46.136Z,101142.75
2023-06-06T03:20:21.510Z,101146.25
2023-06-06T03:23:02.281Z,101134.73
2023-06-06T03:25:36.076Z,101132.28
2023-06-06T03:28:09.601Z,101135.13
2023-06-06T03:30:44.090Z,101131.26
2023-06-06T03:33:18.367Z,101131.26
2023-06-06T03:35:52.716Z,101136.59
2023-06-06T03:38:26.376Z,101138.03
2023-06-06T03:41:01.219Z,101139.69
2023-06-06T03:43:35.771Z,101133.32
2023-06-06T03:46:10.188Z,101126.80
2023-06-06T03:48:45.037Z,101126.59
2023-06-06T03:51:20.429Z,101132.37
2023-06-06T03:53:53.611Z,101135.46
2023-06-06T03:56:28.676Z,101143.08
2023-06-06T03:59:02.828Z,101147.00
2023-06-06T04:01:38.528Z,101145.18
2023-06-06T04:04:16.821Z,101138.86
2023-06-06T04:06:51.131Z,101141.14
2023-06-06T04:09:25.016Z,101143.23
2023-06-06T04:11:59.226Z,101140.81
2023-06-06T04:14:33.327Z,101153.59
2023-06-06T04:17:10.598Z,101153.81
2023-06-06T04:19:44.260Z,101163.91
2023-06-06T04:22:18.743Z,101172.97
2023-06-06T04:24:52.530Z,101171.56
2023-06-06T04:27:26.074Z,101176.33
2023-06-06T04:30:02.833Z,101170.55
2023-06-06T04:32:38.389Z,101165.41
2023-06-06T04:35:13.723Z,101174.03
2023-06-06T04:37:49.363Z,101172.79
2023-06-06T04:40:24.592Z,101172.80
2023-06-06T04:42:59.850Z,101170.92
2023-06-06T04:45:33.700Z,101169.67
2023-06-06T04:48:09.333Z,101175.41
2023-06-06T04:50:45.181Z,101170.02
2023-06-06T04:53:19.046Z,101176.17
2023-06-06T04:55:55.207Z,101170.58
2023-06-06T04:58:29.867Z,101168.92
2023-06-06T05:01:04.285Z,101174.47
2023-06-06T05:03:38.111Z,101170.77
2023-06-06T05:06:13.016Z,101175.05
2023-06-06T05:08:47.790Z,101171.08
2023-06-06T05:11:22.450Z,101166.08
2023-06-06T05:13:57.160Z,101155.93
2023-06-06T05:16:30.483Z,101161.64
2023-06-06T05:19:03.683Z,101156.81
2023-06-06T05:21:37.146Z,101159.84
2023-06-06T05:24:11.337Z,101160.17
2023-06-06T05:26:46.411Z,101158.66
2023-06-06T05:29:20.613Z,101154.41
2023-06-06T05:31:54.564Z,101149.39
2023-06-06T05:34:28.712Z,101151.34
2023-06-06T05:37:02.489Z,101144.64
2023-06-06T05:39:37.421Z,101150.56
2023-06-06T05:42:12.132Z,101145.25
2023-06-06T05:44:46.716Z,101148.83
2023-06-06T05:47:20.174Z,101158.83
2023-06-06T05:49:53.300Z,101166.38
2023-06-06T05:52:27.653Z,101167.91
2023-06-06T05:55:05.649Z,101178.36
2023-06-06T05:57:39.590Z,101178.88
2023-06-06T06:00:17.937Z,101181.05
2023-06-06T06:02:53.126Z,101182.15
2023-06-06T06:05:29.496Z,101169.55
2023-06-06T06:08:05.621Z,101175.55
2023-06-06T06:10:40.877Z,101170.78
2023-06-06T06:13:14.884Z,101168.93
2023-06-06T06:15:47.874Z,101170.59
2023-06-06T06:18:21.736Z,101168.76
2023-06-06T06:20:55.960Z,101178.71
2023-06-06T06:23:29.925Z,101173.08
2023-06-06T06:26:03.841Z,101177.97
2023-06-06T06:28:37.262Z,101176.07
2023-06-06T06:31:11.690Z,101172.53
2023-06-06T06:33:45.999Z,101179.55
2023-06-06T06:36:19.873Z,101179.87
2023-06-06T06:38:53.611Z,101177.69
2023-06-06T06:41:28.065Z,101175.75
2023-06-06T06:44:02.042Z,101171.95
2023-06-06T06:46:36.325Z,101168.68
2023-06-06T06:49:18.410Z,101175.66
2023-06-06T06:51:53.336Z,101176.97
2023-06-06T06:54:27.421Z,101176.90
2023-06-06T06:57:01.237Z,101169.52
2023-06-06T06:59:34.921Z,101178.68
2023-06-06T07:02:10.228Z,101173.75
2023-06-06T07:04:46.551Z,101183.94
2023-06-06T07:07:20.136Z,101174.65
2023-06-06T07:09:54.691Z,101175.93
2023-06-06T07:12:28.315Z,101193.65
2023-06-06T07:15:02.164Z,101183.77
2023-06-06T07:17:35.667Z,101191.73
2023-06-06T07:20:12.689Z,101190.20
2023-06-06T07:22:46.708Z,101197.34
2023-06-06T07:25:20.947Z,101186.62
2023-06-06T07:27:54.989Z,101189.45
2023-06-06T07:30:28.804Z,101180.61
2023-06-06T07:33:02.441Z,101176.06
2023-06-06T07:35:37.629Z,101182.95
2023-06-06T07:38:11.036Z,101177.33
2023-06-06T07:40:44.803Z,101173.33
2023-06-06T07:43:18.916Z,101183.40
2023-06-06T07:45:52.866Z,101173.41
2023-06-06T07:48:27.027Z,101172.67
2023-06-06T07:51:01.848Z,101177.06
2023-06-06T07:53:35.759Z,101173.59
2023-06-06T07:56:09.527Z,101178.52
2023-06-06T07:58:54.120Z,101168.23
2023-06-06T08:01:28.748Z,101164.72
2023-06-06T08:04:02.452Z,101169.09
2023-06-06T08:06:38.563Z,101162.63
2023-06-06T08:09:12.003Z,101165.66
2023-06-06T08:11:45.903Z,101159.44
2023-06-06T08:14:20.024Z,101157.28
2023-06-06T08:16:54.070Z,101156.99
2023-06-06T08:19:28.466Z,101152.64
2023-06-06T08:22:02.912Z,101137.97
2023-06-06T08:24:36.612Z,101141.75
2023-06-06T08:27:11.646Z,101134.16
2023-06-06T08:29:45.801Z,101131.95
2023-06-06T08:32:19.984Z,101135.19
2023-06-06T08:34:53.807Z,101120.20
2023-06-06T08:37:27.534Z,101123.14
2023-06-06T08:40:00.865Z,101125.02
2023-06-06T08:42:38.429Z,101126.62
2023-06-06T08:45:14.288Z,101135.50
2023-06-06T08:47:48.722Z,101131.63
2023-06-06T08:50:24.782Z,101129.41
2023-06-06T08:53:05.531Z,101125.81
2023-06-06T08:55:40.704Z,101122.72
2023-06-06T08:58:14.927Z,101116.13
2023-06-06T09:00:50.959Z,101125.88
2023-06-06T09:03:26.791Z,101107.30
2023-06-06T09:06:01.338Z,101109.93
2023-06-06T09:08:34.780Z,101104.95
2023-06-06T09:11:08.725Z,101094.78
2023-06-06T09:13:46.142Z,101090.58
2023-06-06T09:16:22.646Z,101098.91
2023-06-06T09:19:02.451Z,101102.69
2023-06-06T09:21:36.903Z,101092.27
2023-06-06T09:24:11.865Z,101099.60
2023-06-06T09:26:45.794Z,101083.70
2023-06-06T09:29:19.706Z,101085.26
2023-06-06T09:31:53.627Z,101088.44
2023-06-06T09:34:38.777Z,101089.10
2023-06-06T09:37:18.545Z,101083.51
2023-06-06T09:40:14.444Z,101083.67
2023-06-06T09:42:49.521Z,101069.67
2023-06-06T09:45:24.004Z,101070.34
2023-06-06T09:48:02.894Z,101071.81
2023-06-06T09:50:37.629Z,101080.64
2023-06-06T09:53:16.098Z,101081.06
2023-06-06T09:55:53.808Z,101070.29
2023-06-06T09:58:34.934Z,101069.29
2023-06-06T10:01:14.214Z,101062.05
2023-06-06T10:03:54.194Z,101066.55
2023-06-06T10:06:35.632Z,101056.81
2023-06-06T10:09:09.776Z,101053.70
2023-06-06T10:11:44.837Z,101061.20
2023-06-06T10:14:18.462Z,101054.02
2023-06-06T10:16:52.925Z,101062.12
2023-06-06T10:19:29.046Z,101052.20
2023-06-06T10:22:04.303Z,101051.48
2023-06-06T10:24:39.950Z,101059.62
2023-06-06T10:27:28.550Z,101047.95
2023-06-06T10:30:09.008Z,101048.64
2023-06-06T10:32:53.123Z,101052.60
2023-06-06T10:35:28.234Z,101045.29
2023-06-06T10:38:11.196Z,101037.17
2023-06-06T10:40:56.454Z,101026.30
2023-06-06T10:43:55.608Z,101027.17
2023-06-06T10:46:29.272Z,101020.98
2023-06-06T10:49:08.611Z,101020.87
2023-06-06T10:51:45.448Z,101017.51
2023-06-06T10:54:23.878Z,101016.27
2023-06-06T10:57:00.637Z,101012.28
2023-06-06T10:59:38.634Z,101016.70
2023-06-06T11:02:36.543Z,101001.76
2023-06-06T11:05:13.347Z,100998.56
2023-06-06T11:07:52.082Z,101011.50
2023-06-06T11:10:29.583Z,100995.94
2023-06-06T11:13:29.134Z,101006.13
2023-06-06T11:16:03.416Z,100998.59
2023-06-06T11:18:48.347Z,101006.34
2023-06-06T11:21:32.047Z,101001.05
2023-06-06T11:24:07.801Z,100995.43
2023-06-06T11:26:44.246Z,100986.88
2023-06-06T11:29:21.129Z,100978.99
2023-06-06T11:31:54.762Z,100976.10
2023-06-06T11:34:33.576Z,100978.58
2023-06-06T11:37:09.308Z,100981.84
2023-06-06T11:39:50.555Z,100975.86
2023-06-06T11:42:29.059Z,100960.72
2023-06-06T11:45:03.702Z,100973.45
2023-06-06T11:47:37.818Z,100968.14
2023-06-06T11:50:30.896Z,100972.17
2023-06-06T11:53:06.918Z,100967.65
2023-06-06T11:55:41.423Z,100964.75
2023-06-06T11:58:15.390Z,100951.03
2023-06-06T12:00:50.791Z,100961.36
2023-06-06T12:03:25.422Z,100950.07
2023-06-06T12:06:07.444Z,100947.81
2023-06-06T12:08:41.372Z,100948.78
2023-06-06T12:11:32.846Z,100940.41
2023-06-06T12:14:14.486Z,100942.98
2023-06-06T12:16:49.037Z,100941.69
2023-06-06T12:19:23.900Z,100934.24
2023-06-06T12:21:57.754Z,100926.49
2023-06-06T12:24:32.680Z,100927.94
2023-06-06T12:27:07.068Z,100922.75
2023-06-06T12:29:52.252Z,100922.58
2023-06-06T12:32:27.891Z,100914.16
2023-06-06T12:35:04.422Z,100928.85
2023-06-06T12:37:43.858Z,100931.11
2023-06-06T12:40:22.208Z,100926.57
2023-06-06T12:42:56.974Z,100922.34
2023-06-06T12:45:31.159Z,100911.55
2023-06-06T12:48:05.238Z,100918.31
2023-06-06T12:50:39.662Z,100907.48
2023-06-06T12:53:14.324Z,100901.81
2023-06-06T12:55:48.843Z,100893.25
2023-06-06T12:58:23.125Z,100897.61
2023-06-06T13:00:56.979Z,100885.61
2023-06-06T13:03:31.430Z,100889.97
2023-06-06T13:06:06.442Z,100885.95
2023-06-06T13:08:39.823Z,100889.68
2023-06-06T13:11:13.915Z,100886.14
2023-06-06T13:13:48.749Z,100880.30
2023-06-06T13:16:22.815Z,100877.55
2023-06-06T13:18:57.505Z,100863.50
2023-06-06T13:21:31.572Z,100865.58
2023-06-06T13:24:05.691Z,100868.45
2023-06-06T13:26:39.686Z,100859.90
2023-06-06T13:29:14.154Z,100858.89
2023-06-06T13:31:47.858Z,100856.61
2023-06-06T13:34:22.067Z,100858.69
2023-06-06T13:36:55.732Z,100858.03
2023-06-06T13:39:29.542Z,100847.50
2023-06-06T13:42:03.287Z,100852.69
2023-06-06T13:44:36.980Z,100842.36
2023-06-06T13:47:11.851Z,100838.19
2023-06-06T13:49:45.924Z,100840.78
2023-06-06T13:52:19.787Z,100834.02
2023-06-06T13:54:55.629Z,100834.81
2023-06-06T13:57:30.609Z,100828.18
2023-06-06T14:00:06.910Z,100834.81
2023-06-06T14:02:42.231Z,100826.29
2023-06-06T14:05:17.651Z,100829.10
2023-06-06T14:07:51.619Z,100828.62
2023-06-06T14:10:24.896Z,100827.65
2023-06-06T14:13:00.092Z,100817.48
2023-06-06T14:15:34.269Z,100816.03
2023-06-06T14:18:10.114Z,100809.55
2023-06-06T14:21:00.724Z,100810.22
2023-06-06T14:23:34.953Z,100819.56
2023-06-06T14:26:09.018Z,100807.63
2023-06-06T14:28:42.561Z,100814.92
2023-06-06T14:31:16.176Z,100814.98
2023-06-06T14:33:50.477Z,100803.83
2023-06-06T14:36:24.901Z,100809.98
2023-06-06T14:38:57.822Z,100805.15
2023-06-06T14:41:31.433Z,100803.06
2023-06-06T14:44:05.313Z,100807.60
2023-06-06T14:46:40.310Z,100809.39
2023-06-06T14:49:14.160Z,100807.65
2023-06-06T14:51:48.524Z,100805.56
2023-06-06T14:54:22.170Z,100807.19
2023-06-06T14:56:56.365Z,100809.28
2023-06-06T14:59:29.569Z,100804.94
2023-06-06T15:02:04.427Z,100814.81
2023-06-06T15:04:39.459Z,100805.94
2023-06-06T15:07:13.314Z,100811.11
2023-06-06T15:09:46.912Z,100809.52
2023-06-06T15:12:20.877Z,100816.61
2023-06-06T15:14:55.173Z,100813.03
2023-06-06T15:17:29.289Z,100811.44
2023-06-06T15:20:03.361Z,100815.63
2023-06-06T15:22:37.306Z,100811.25
2023-06-06T15:25:13.414Z,100813.02
2023-06-06T15:27:48.050Z,100812.84
2023-06-06T15:30:21.878Z,100807.63
2023-06-06T15:32:55.640Z,100816.44
2023-06-06T15:35:29.547Z,100815.11
2023-06-06T15:38:03.999Z,100812.98
2023-06-06T15:40:38.076Z,100816.49
2023-06-06T15:43:12.236Z,100812.87
2023-06-06T15:45:45.824Z,100819.91
2023-06-06T15:48:21.022Z,100820.99
2023-06-06T15:50:54.551Z,100818.98
2023-06-06T15:53:27.942Z,100826.03
2023-06-06T15:56:01.965Z,100816.77
2023-06-06T15:58:35.754Z,100829.56
2023-06-06T16:01:09.509Z,100828.98
2023-06-06T16:03:43.262Z,100835.81
2023-06-06T16:06:17.176Z,100836.04
2023-06-06T16:08:50.735Z,100841.41
2023-06-06T16:11:24.286Z,100834.77
2023-06-06T16:13:58.668Z,100844.48
2023-06-06T16:16:32.454Z,100838.11
2023-06-06T16:19:07.722Z,100840.23
2023-06-06T16:21:41.143Z,100847.52
2023-06-06T16:24:14.941Z,100837.09
2023-06-06T16:26:49.099Z,100840.52
2023-06-06T16:29:23.120Z,100845.58
2023-06-06T16:31:57.072Z,100849.32
2023-06-06T16:34:31.301Z,100854.11
2023-06-06T16:37:05.718Z,100848.04
2023-06-06T16:39:39.091Z,100844.97
2023-06-06T16:42:14.880Z,100846.25
2023-06-06T16:44:48.966Z,100854.60
2023-06-06T16:47:23.410Z,100849.00
2023-06-06T16:49:57.066Z,100849.12
2023-06-06T16:52:31.074Z,100849.59
2023-06-06T16:55:05.893Z,100853.77
2023-06-06T16:57:40.083Z,100857.74
2023-06-06T17:00:16.340Z,100847.26
2023-06-06T17:02:50.610Z,100849.91
2023-06-06T17:05:25.092Z,100840.49
2023-06-06T17:07:59.599Z,100846.36
2023-06-06T17:10:33.157Z,100848.16
2023-06-06T17:13:06.954Z,100852.37
2023-06-06T17:15:42.901Z,100855.20
2023-06-06T17:18:16.498Z,100853.67
2023-06-06T17:20:50.704Z,100860.80
2023-06-06T17:23:25.080Z,100862.52
2023-06-06T17:25:59.330Z,100854.17
2023-06-06T17:28:32.860Z,100864.03
2023-06-06T17:31:07.507Z,100864.37
2023-06-06T17:33:41.632Z,100860.94
2023-06-06T17:36:15.437Z,100863.72
2023-06-06T17:38:49.294Z,100864.84
2023-06-06T17:41:22.710Z,100876.58
2023-06-06T17:43:56.731Z,100877.98
2023-06-06T17:46:31.638Z,100878.56
2023-06-06T17:49:09.167Z,100883.48
2023-06-06T17:51:43.740Z,100884.86
2023-06-06T17:54:17.039Z,100891.16
2023-06-06T17:56:51.495Z,100888.47
2023-06-06T17:59:25.473Z,100891.19
2023-06-06T18:01:59.085Z,100897.17
2023-06-06T18:04:33.419Z,100896.08
2023-06-06T18:07:08.580Z,100891.49
2023-06-06T18:09:43.057Z,100892.30
2023-06-06T18:12:17.821Z,100889.88
2023-06-06T18:14:53.322Z,100888.52
2023-06-06T18:17:27.117Z,100882.84
2023-06-06T18:20:01.643Z,100892.31
2023-06-06T18:22:36.063Z,100892.02
2023-06-06T18:25:12.797Z,100897.69
2023-06-06T18:27:46.683Z,100904.19
2023-06-06T18:30:21.614Z,100902.00
2023-06-06T18:32:55.574Z,100904.44
2023-06-06T18:35:29.241Z,100895.47
2023-06-06T18:38:05.247Z,100900.33
2023-06-06T18:40:38.898Z,100898.97
2023-06-06T18:43:16.829Z,100907.33
2023-06-06T18:45:51.387Z,100907.59
2023-06-06T18:48:25.951Z,100915.14
2023-06-06T18:50:59.720Z,100918.05
2023-06-06T18:53:32.834Z,100909.91
2023-06-06T18:56:06.793Z,100914.50
2023-06-06T18:58:41.254Z,100910.38
2023-06-06T19:01:15.494Z,100923.89
2023-06-06T19:03:49.477Z,100931.98
2023-06-06T19:06:23.653Z,100927.37
2023-06-06T19:08:56.896Z,100939.79
2023-06-06T19:11:30.211Z,100941.91
2023-06-06T19:14:03.498Z,100937.26
2023-06-06T19:16:37.824Z,100948.32
2023-06-06T19:19:13.120Z,100953.14
2023-06-06T19:21:47.302Z,100937.94
2023-06-06T19:24:20.754Z,100942.48
2023-06-06T19:26:54.349Z,100938.91
2023-06-06T19:29:27.891Z,100938.86
2023-06-06T19:32:01.767Z,100941.52
2023-06-06T19:34:35.650Z,100939.02
2023-06-06T19:37:12.683Z,100940.87
2023-06-06T19:39:50.094Z,100947.30
2023-06-06T19:42:23.550Z,100941.02
2023-06-06T19:44:57.351Z,100943.94
2023-06-06T19:47:31.463Z,100944.12
2023-06-06T19:50:06.297Z,100939.97
2023-06-06T19:52:40.333Z,100949.66
2023-06-06T19:55:15.215Z,100939.86
2023-06-06T19:57:49.791Z,100950.38
2023-06-06T20:00:25.605Z,100952.19
2023-06-06T20:02:59.223Z,100946.72
2023-06-06T20:05:32.965Z,100952.63
2023-06-06T20:08:08.353Z,100957.70
2023-06-06T20:10:41.962Z,100950.34
2023-06-06T20:15:48.749Z,100949.97
2023-06-06T20:18:22.981Z,100946.71
2023-06-06T20:20:57.236Z,100945.58
2023-06-06T20:23:32.013Z,100946.31
2023-06-06T20:26:07.908Z,100947.88
2023-06-06T20:28:41.174Z,100957.31
2023-06-06T20:31:14.381Z,100962.14
2023-06-06T20:33:48.263Z,100958.04
2023-06-06T20:36:21.884Z,100957.73
2023-06-06T20:38:56.013Z,100962.80
2023-06-06T20:41:29.920Z,100961.66
2023-06-06T20:44:04.106Z,100960.52
2023-06-06T20:46:38.250Z,100964.78
2023-06-06T20:49:12.612Z,100970.67
2023-06-06T20:51:46.463Z,100971.17
2023-06-06T20:54:19.477Z,100961.94
2023-06-06T20:56:53.095Z,100958.92
2023-06-06T20:59:27.982Z,100966.67
2023-06-06T21:02:02.230Z,100968.73
2023-06-06T21:04:35.736Z,100968.16
2023-06-06T21:07:10.078Z,100961.59
2023-06-06T21:09:43.486Z,100961.27
2023-06-06T21:12:17.499Z,100956.59
2023-06-06T21:14:51.356Z,100959.21
2023-06-06T21:17:26.254Z,100956.20
2023-06-06T21:20:01.603Z,100964.44
2023-06-06T21:22:35.631Z,100968.11
2023-06-06T21:25:11.573Z,100967.79
2023-06-06T21:27:45.865Z,100963.95
2023-06-06T21:30:19.556Z,100965.48
2023-06-06T21:32:53.336Z,100979.67
2023-06-06T21:35:28.485Z,100974.19
2023-06-06T21:38:02.251Z,100976.22
2023-06-06T21:40:36.523Z,100971.56
2023-06-06T21:43:10.202Z,100970.64
2023-06-06T21:45:44.975Z,100964.09
2023-06-06T21:48:19.979Z,100973.14
2023-06-06T21:50:54.207Z,100963.09
2023-06-06T21:53:28.098Z,100960.05
2023-06-06T21:56:02.122Z,100955.59
2023-06-06T21:58:36.465Z,100961.45
2023-06-06T22:01:12.506Z,100967.79
2023-06-06T22:03:46.054Z,100980.92
2023-06-06T22:06:20.356Z,100979.51
2023-06-06T22:08:54.965Z,100983.73
2023-06-06T22:11:28.266Z,100993.13
2023-06-06T22:14:03.212Z,100986.32
2023-06-06T22:16:36.172Z,100991.95
2023-06-06T22:19:12.096Z,100996.76
2023-06-06T22:21:45.431Z,100992.90
2023-06-06T22:24:18.617Z,101001.20
2023-06-06T22:26:54.714Z,101001.08
2023-06-06T22:29:28.032Z,100997.81
2023-06-06T22:32:02.169Z,100996.64
2023-06-06T22:34:36.210Z,101001.44
2023-06-06T22:37:10.466Z,100996.75
2023-06-06T22:39:43.579Z,100997.22
2023-06-06T22:42:17.383Z,100994.41
2023-06-06T22:44:51.680Z,100989.16
2023-06-06T22:47:25.775Z,100995.47
2023-06-06T22:49:59.582Z,100999.68
2023-06-06T22:52:33.553Z,101000.61
2023-06-06T22:55:08.794Z,100993.47
2023-06-06T22:57:42.365Z,100987.56
2023-06-06T23:00:20.142Z,100982.89
2023-06-06T23:02:53.467Z,100980.30
2023-06-06T23:05:28.595Z,100983.91
2023-06-06T23:08:03.255Z,100976.77
2023-06-06T23:10:37.317Z,100979.78
2023-06-06T23:13:10.544Z,100980.48
2023-06-06T23:15:45.645Z,100974.98
2023-06-06T23:18:20.286Z,100980.22
2023-06-06T23:20:54.076Z,100987.10
2023-06-06T23:23:27.491Z,100980.17
2023-06-06T23:26:01.565Z,100992.66
2023-06-06T23:28:34.827Z,100987.14
2023-06-06T23:31:08.525Z,100995.06
2023-06-06T23:33:42.707Z,100991.19
2023-06-06T23:36:17.077Z,100987.77
2023-06-06T23:38:50.437Z,100989.72
2023-06-06T23:41:23.609Z,100987.06
2023-06-06T23:43:57.243Z,100987.52
2023-06-06T23:46:31.842Z,100981.20
2023-06-06T23:49:05.254Z,100973.80
2023-06-06T23:51:38.939Z,100972.84
2023-06-06T23:54:13.068Z,100977.23
2023-06-06T23:56:47.223Z,100970.91
2023-06-06T23:59:21.125Z,100968.67
